createdAt,value
2023-03-29T00:08:07.257Z,101291.75
2023-03-29T00:18:08.911Z,101279.72
2023-03-29T00:28:10.526Z,101255.69
2023-03-29T00:38:11.950Z,101254.84
2023-03-29T00:48:21.491Z,101244.66
2023-03-29T00:58:28.634Z,101234.28
2023-03-29T01:08:35.443Z,101240.53
2023-03-29T01:18:37.527Z,101219.94
2023-03-29T01:29:04.033Z,101202.03
2023-03-29T01:39:07.218Z,101186.66
2023-03-29T01:49:23.435Z,101163.59
2023-03-29T01:59:32.252Z,101161.00
2023-03-29T02:09:37.266Z,101153.22
2023-03-29T02:19:39.240Z,101142.28
2023-03-29T02:29:40.741Z,101137.16
2023-03-29T02:39:42.802Z,101123.63
2023-03-29T02:49:44.355Z,101115.88
2023-03-29T02:59:45.732Z,101126.31
2023-03-29T03:09:47.697Z,101128.88
2023-03-29T03:19:49.486Z,101118.84
2023-03-29T03:29:50.917Z,101117.38
2023-03-29T03:39:52.811Z,101111.44
2023-03-29T03:49:54.290Z,101109.81
2023-03-29T03:59:56.392Z,101111.66
2023-03-29T04:09:57.764Z,101097.97
2023-03-29T04:20:01.233Z,101088.72
2023-03-29T04:30:03.273Z,101089.66
2023-03-29T04:40:08.687Z,101091.38
2023-03-29T04:50:10.466Z,101078.50
2023-03-29T05:00:16.895Z,101081.88
2023-03-29T05:10:19.022Z,101071.63
2023-03-29T05:20:21.957Z,101063.81
2023-03-29T05:30:23.453Z,101046.63
2023-03-29T05:40:26.257Z,101051.91
2023-03-29T05:50:27.775Z,101034.00
2023-03-29T06:00:30.144Z,101046.84
2023-03-29T06:10:31.723Z,101041.72
2023-03-29T06:20:33.366Z,101045.34
2023-03-29T06:30:34.786Z,101054.91
2023-03-29T06:40:37.848Z,101061.00
2023-03-29T06:50:39.386Z,101062.78
2023-03-29T07:00:41.945Z,101070.66
2023-03-29T07:10:47.468Z,101076.78
2023-03-29T07:20:49.231Z,101069.31
2023-03-29T07:30:51.163Z,101074.66
2023-03-29T07:40:54.288Z,101080.84
2023-03-29T07:50:55.916Z,101077.66
2023-03-29T08:01:00.124Z,101079.53
2023-03-29T08:11:02.012Z,101084.81
2023-03-29T08:21:05.136Z,101080.84
2023-03-29T08:31:09.803Z,101085.44
2023-03-29T08:41:46.628Z,101091.41
2023-03-29T08:51:55.062Z,101074.31
2023-03-29T09:01:59.045Z,101059.91
2023-03-29T09:12:19.501Z,101066.91
2023-03-29T09:22:30.671Z,101067.13
2023-03-29T09:32:47.435Z,101066.53
2023-03-29T09:42:52.707Z,101047.94
2023-03-29T09:52:54.397Z,101058.19
2023-03-29T10:02:58.963Z,101044.59
2023-03-29T10:13:13.380Z,101044.78
2023-03-29T10:23:18.412Z,101051.88
2023-03-29T10:33:23.919Z,101039.06
2023-03-29T10:43:37.187Z,101024.50
2023-03-29T10:53:39.511Z,101025.50
2023-03-29T11:04:22.861Z,101005.72
2023-03-29T11:14:31.924Z,100997.94
2023-03-29T11:24:50.382Z,100993.63
2023-03-29T11:35:01.561Z,101000.47
2023-03-29T11:45:04.933Z,100982.25
2023-03-29T11:55:18.008Z,100957.00
2023-03-29T12:05:28.296Z,100947.34
2023-03-29T12:15:36.570Z,100953.50
2023-03-29T12:25:52.490Z,100932.59
2023-03-29T12:36:35.606Z,100931.72
2023-03-29T12:46:37.049Z,100928.91
2023-03-29T12:56:54.048Z,100925.44
2023-03-29T13:07:03.388Z,100907.00
2023-03-29T13:17:18.324Z,100905.97
2023-03-29T13:27:42.991Z,100904.06
2023-03-29T13:37:59.474Z,100898.81
2023-03-29T13:48:28.915Z,100881.31
2023-03-29T13:58:38.248Z,100858.66
2023-03-29T14:08:41.783Z,100838.50
2023-03-29T14:18:44.654Z,100822.72
2023-03-29T14:28:51.614Z,100812.34
2023-03-29T14:39:12.876Z,100813.84
2023-03-29T14:49:19.402Z,100811.84
2023-03-29T14:59:28.205Z,100803.88
2023-03-29T15:09:34.210Z,100790.69
2023-03-29T15:19:36.424Z,100766.59
2023-03-29T15:29:43.604Z,100745.47
2023-03-29T15:39:45.182Z,100739.63
2023-03-29T15:49:47.126Z,100715.03
2023-03-29T15:59:49.006Z,100701.22
2023-03-29T16:09:50.941Z,100687.97
2023-03-29T16:19:52.382Z,100669.66
2023-03-29T16:29:54.014Z,100662.69
2023-03-29T16:39:56.773Z,100639.31
2023-03-29T16:49:58.331Z,100633.38
2023-03-29T16:59:59.886Z,100619.50
2023-03-29T17:10:04.510Z,100612.69
2023-03-29T17:20:08.556Z,100617.03
2023-03-29T17:30:10.839Z,100603.31
2023-03-29T17:40:14.008Z,100596.44
2023-03-29T17:50:15.896Z,100588.75
2023-03-29T18:00:17.734Z,100582.78
2023-03-29T18:10:19.185Z,100556.94
2023-03-29T18:20:20.660Z,100548.44
2023-03-29T18:30:22.218Z,100540.75
2023-03-29T18:40:26.291Z,100546.97
2023-03-29T18:50:28.185Z,100540.94
2023-03-29T19:00:30.948Z,100536.84
2023-03-29T19:10:36.947Z,100523.88
2023-03-29T19:20:38.501Z,100525.72
2023-03-29T19:30:40.014Z,100518.91
2023-03-29T19:40:45.718Z,100503.34
2023-03-29T19:50:47.203Z,100486.97
2023-03-29T20:00:50.593Z,100484.44
2023-03-29T20:11:23.710Z,100474.09
2023-03-29T20:21:25.337Z,100463.81
2023-03-29T20:31:27.415Z,100444.81
2023-03-29T20:41:29.010Z,100437.09
2023-03-29T20:51:31.916Z,100436.34
2023-03-29T21:01:35.012Z,100421.84
2023-03-29T21:11:36.572Z,100389.75
2023-03-29T21:21:38.028Z,100370.81
2023-03-29T21:31:39.728Z,100358.91
2023-03-29T21:41:41.366Z,100341.66
2023-03-29T21:51:42.925Z,100328.88
2023-03-29T22:01:44.325Z,100328.91
2023-03-29T22:11:45.950Z,100322.94
2023-03-29T22:21:48.617Z,100332.53
2023-03-29T22:31:50.379Z,100313.59
2023-03-29T22:41:51.810Z,100294.63
2023-03-29T22:51:53.636Z,100290.38
2023-03-29T23:01:55.350Z,100275.69
2023-03-29T23:11:56.862Z,100282.00
2023-03-29T23:21:58.315Z,100265.50
2023-03-29T23:31:59.719Z,100265.75
2023-03-29T23:42:01.633Z,100264.75
2023-03-29T23:52:03.051Z,100255.28
